createdAt,value
2023-05-12T00:00:25.242Z,79.64
2023-05-12T00:02:52.934Z,80.91
2023-05-12T00:05:20.540Z,81.92
2023-05-12T00:07:48.078Z,83.11
2023-05-12T00:10:17.433Z,82.42
2023-05-12T00:12:45.248Z,82.75
2023-05-12T00:15:12.858Z,81.59
2023-05-12T00:17:40.558Z,81.32
2023-05-12T00:20:09.590Z,80.49
2023-05-12T00:22:37.265Z,81.50
2023-05-12T00:25:05.216Z,80.78
2023-05-12T00:27:34.107Z,79.60
2023-05-12T00:30:01.995Z,79.88
2023-05-12T00:32:29.579Z,79.70
2023-05-12T00:34:57.405Z,81.06
2023-05-12T00:37:24.989Z,81.68
2023-05-12T00:39:52.703Z,81.82
2023-05-12T00:42:20.390Z,81.53
2023-05-12T00:44:50.004Z,81.66
2023-05-12T00:47:17.920Z,80.54
2023-05-12T00:49:45.604Z,81.15
2023-05-12T00:52:13.216Z,80.72
2023-05-12T00:54:43.312Z,82.82
2023-05-12T00:57:11.354Z,82.63
2023-05-12T00:59:38.914Z,83.08
2023-05-12T01:02:08.789Z,84.09
2023-05-12T01:04:37.347Z,83.70
2023-05-12T01:07:09.937Z,84.94
2023-05-12T01:09:37.458Z,85.90
2023-05-12T01:12:05.731Z,84.64
2023-05-12T01:14:34.155Z,84.10
2023-05-12T01:17:08.696Z,84.86
2023-05-12T01:19:42.776Z,84.65
2023-05-12T01:22:11.072Z,83.33
2023-05-12T01:24:46.734Z,84.71
2023-05-12T01:27:17.348Z,85.55
2023-05-12T01:29:47.542Z,85.49
2023-05-12T01:32:16.066Z,86.33
2023-05-12T01:34:44.339Z,83.64
2023-05-12T01:37:12.648Z,82.16
2023-05-12T01:39:40.252Z,81.44
2023-05-12T01:42:07.899Z,81.28
2023-05-12T01:44:36.871Z,81.70
2023-05-12T01:47:04.549Z,81.32
2023-05-12T01:49:32.114Z,81.56
2023-05-12T01:51:59.655Z,81.69
2023-05-12T01:54:27.493Z,81.98
2023-05-12T01:56:55.059Z,82.73
2023-05-12T01:59:22.662Z,83.77
2023-05-12T02:01:51.724Z,85.04
2023-05-12T02:04:19.302Z,83.98
2023-05-12T02:06:46.884Z,82.62
2023-05-12T02:09:14.500Z,82.96
2023-05-12T02:11:42.108Z,83.69
2023-05-12T02:14:09.689Z,84.93
2023-05-12T02:16:37.289Z,85.56
2023-05-12T02:19:06.329Z,86.69
2023-05-12T02:21:34.063Z,84.42
2023-05-12T02:24:01.714Z,83.64
2023-05-12T02:26:29.421Z,82.53
2023-05-12T02:28:56.917Z,83.47
2023-05-12T02:31:24.545Z,84.26
2023-05-12T02:33:52.573Z,82.66
2023-05-12T02:36:21.482Z,81.51
2023-05-12T02:38:49.056Z,81.63
2023-05-12T02:41:16.613Z,81.45
2023-05-12T02:43:44.210Z,81.63
2023-05-12T02:46:11.847Z,82.34
2023-05-12T02:48:39.386Z,81.58
2023-05-12T02:51:06.917Z,80.80
2023-05-12T02:53:35.790Z,80.72
2023-05-12T02:56:03.416Z,81.00
2023-05-12T02:58:30.972Z,81.61
2023-05-12T03:01:07.046Z,80.96
2023-05-12T03:03:37.488Z,81.61
2023-05-12T03:06:06.087Z,82.51
2023-05-12T03:08:33.988Z,82.79
2023-05-12T03:11:03.141Z,82.52
2023-05-12T03:13:30.671Z,82.89
2023-05-12T03:16:01.186Z,84.21
2023-05-12T03:18:29.238Z,84.70
2023-05-12T03:20:56.940Z,84.36
2023-05-12T03:23:24.616Z,84.30
2023-05-12T03:25:52.282Z,85.14
2023-05-12T03:28:22.943Z,86.14
2023-05-12T03:30:50.538Z,86.07
2023-05-12T03:33:18.079Z,85.22
2023-05-12T03:35:45.700Z,84.98
2023-05-12T03:38:13.421Z,85.62
2023-05-12T03:40:41.177Z,85.67
2023-05-12T03:43:08.691Z,85.88
2023-05-12T03:45:37.613Z,85.46
2023-05-12T03:48:05.699Z,85.54
2023-05-12T03:50:33.229Z,86.12
2023-05-12T03:53:00.770Z,85.43
2023-05-12T03:55:28.306Z,85.86
2023-05-12T03:57:55.836Z,84.23
2023-05-12T04:00:26.186Z,84.63
2023-05-12T04:02:55.198Z,85.63
2023-05-12T04:05:23.079Z,86.16
2023-05-12T04:07:50.606Z,86.17
2023-05-12T04:10:18.567Z,85.53
2023-05-12T04:12:46.264Z,83.54
2023-05-12T04:15:14.832Z,82.96
2023-05-12T04:17:42.753Z,82.84
2023-05-12T04:20:12.418Z,82.37
2023-05-12T04:22:40.454Z,83.74
2023-05-12T04:25:08.680Z,84.09
2023-05-12T04:27:36.218Z,85.29
2023-05-12T04:30:03.837Z,86.50
2023-05-12T04:32:31.528Z,86.34
2023-05-12T04:34:59.237Z,86.82
2023-05-12T04:37:28.204Z,87.64
2023-05-12T04:39:55.848Z,87.66
2023-05-12T04:42:23.442Z,87.92
2023-05-12T04:44:51.031Z,87.12
2023-05-12T04:47:18.638Z,86.28
2023-05-12T04:49:46.194Z,84.50
2023-05-12T04:52:13.895Z,83.11
2023-05-12T04:54:42.770Z,82.17
2023-05-12T04:57:10.359Z,82.47
2023-05-12T04:59:39.257Z,83.87
2023-05-12T05:02:08.097Z,83.24
2023-05-12T05:04:35.743Z,82.23
2023-05-12T05:07:03.298Z,81.58
2023-05-12T05:09:30.951Z,81.67
2023-05-12T05:11:59.856Z,82.12
2023-05-12T05:14:27.539Z,83.26
2023-05-12T05:16:55.436Z,84.65
2023-05-12T05:19:35.863Z,85.70
2023-05-12T05:22:10.417Z,86.46
2023-05-12T05:24:37.989Z,86.87
2023-05-12T05:27:07.261Z,87.54
2023-05-12T05:29:34.776Z,84.63
2023-05-12T05:32:02.324Z,82.68
2023-05-12T05:34:29.915Z,82.16
2023-05-12T05:36:57.455Z,82.51
2023-05-12T05:39:25.297Z,83.63
2023-05-12T05:41:52.945Z,83.78
2023-05-12T05:44:21.874Z,83.65
2023-05-12T05:46:49.464Z,85.02
2023-05-12T05:49:17.041Z,84.94
2023-05-12T05:51:44.585Z,85.51
2023-05-12T05:54:12.235Z,85.94
2023-05-12T05:56:39.840Z,86.30
2023-05-12T05:59:07.769Z,85.94
2023-05-12T06:01:36.834Z,85.76
2023-05-12T06:04:04.522Z,85.77
2023-05-12T06:06:32.628Z,86.48
2023-05-12T06:09:00.187Z,86.36
2023-05-12T06:11:27.776Z,86.02
2023-05-12T06:13:55.347Z,85.90
2023-05-12T06:16:22.970Z,84.73
2023-05-12T06:18:51.951Z,85.86
2023-05-12T06:21:19.563Z,86.09
2023-05-12T06:23:47.102Z,86.28
2023-05-12T06:26:14.798Z,85.93
2023-05-12T06:28:42.410Z,85.37
2023-05-12T06:31:10.145Z,83.57
2023-05-12T06:33:37.673Z,84.30
2023-05-12T06:36:07.727Z,85.36
2023-05-12T06:38:35.294Z,84.92
2023-05-12T06:41:02.908Z,85.28
2023-05-12T06:43:30.605Z,83.52
2023-05-12T06:45:58.215Z,83.55
2023-05-12T06:48:25.875Z,81.63
2023-05-12T06:50:53.456Z,81.31
2023-05-12T06:53:24.094Z,81.12
2023-05-12T06:55:53.628Z,81.25
2023-05-12T06:58:22.062Z,81.50
2023-05-12T07:00:49.739Z,82.85
2023-05-12T07:03:17.496Z,83.24
2023-05-12T07:05:45.574Z,84.05
2023-05-12T07:08:13.212Z,84.35
2023-05-12T07:10:42.292Z,83.47
2023-05-12T07:13:10.072Z,83.80
2023-05-12T07:15:37.647Z,83.51
2023-05-12T07:18:05.331Z,81.44
2023-05-12T07:20:33.001Z,81.94
2023-05-12T07:23:00.662Z,83.00
2023-05-12T07:25:28.543Z,83.43
2023-05-12T07:27:57.503Z,82.77
2023-05-12T07:30:25.230Z,80.84
2023-05-12T07:32:53.167Z,79.27
2023-05-12T07:35:21.024Z,79.01
2023-05-12T07:37:48.654Z,79.43
2023-05-12T07:40:16.466Z,79.30
2023-05-12T07:42:44.273Z,79.05
2023-05-12T07:45:13.496Z,77.58
2023-05-12T07:47:41.268Z,76.52
2023-05-12T07:50:09.201Z,76.25
2023-05-12T07:52:36.742Z,75.92
2023-05-12T07:55:04.680Z,76.03
2023-05-12T07:57:32.260Z,75.59
2023-05-12T07:59:59.872Z,74.50
2023-05-12T08:02:28.972Z,75.18
2023-05-12T08:04:56.605Z,75.25
2023-05-12T08:07:24.297Z,74.33
2023-05-12T08:09:52.599Z,73.73
2023-05-12T08:12:21.275Z,73.53
2023-05-12T08:14:48.945Z,72.87
2023-05-12T08:17:16.573Z,72.10
2023-05-12T08:19:45.551Z,72.17
2023-05-12T08:22:13.380Z,72.07
2023-05-12T08:24:41.014Z,70.47
2023-05-12T08:27:08.641Z,70.60
2023-05-12T08:29:36.225Z,70.63
2023-05-12T08:32:03.942Z,70.98
2023-05-12T08:34:31.646Z,71.69
2023-05-12T08:37:01.589Z,71.11
2023-05-12T08:39:30.981Z,71.20
2023-05-12T08:42:09.465Z,70.03
2023-05-12T08:44:38.159Z,70.48
2023-05-12T08:47:06.973Z,70.51
2023-05-12T08:49:38.742Z,70.66
2023-05-12T08:52:09.039Z,70.56
2023-05-12T08:54:48.493Z,70.97
2023-05-12T08:57:20.764Z,69.75
2023-05-12T08:59:48.751Z,69.44
2023-05-12T09:02:18.332Z,70.45
2023-05-12T09:04:45.981Z,71.80
2023-05-12T09:07:15.867Z,70.35
2023-05-12T09:09:45.939Z,68.93
2023-05-12T09:12:16.885Z,68.45
2023-05-12T09:14:45.822Z,67.96
2023-05-12T09:17:13.955Z,68.67
2023-05-12T09:19:41.490Z,69.27
2023-05-12T09:22:14.672Z,70.82
2023-05-12T09:24:44.186Z,68.91
2023-05-12T09:27:11.781Z,69.30
2023-05-12T09:29:58.966Z,67.78
2023-05-12T09:32:34.691Z,68.10
2023-05-12T09:35:07.799Z,67.90
2023-05-12T09:37:36.091Z,70.36
2023-05-12T09:40:07.340Z,68.52
2023-05-12T09:42:36.338Z,69.20
2023-05-12T09:45:04.313Z,69.49
2023-05-12T09:47:38.847Z,68.55
2023-05-12T09:50:08.634Z,68.65
2023-05-12T09:52:38.754Z,67.68
2023-05-12T09:55:10.945Z,68.20
2023-05-12T09:57:41.283Z,68.03
2023-05-12T10:00:21.143Z,68.64
2023-05-12T10:02:58.085Z,69.05
2023-05-12T10:05:26.256Z,70.23
2023-05-12T10:07:58.536Z,68.82
2023-05-12T10:10:28.745Z,69.12
2023-05-12T10:12:57.089Z,69.28
2023-05-12T10:15:25.816Z,69.35
2023-05-12T10:17:55.140Z,70.58
2023-05-12T10:20:23.639Z,70.69
2023-05-12T10:22:52.798Z,69.77
2023-05-12T10:25:21.326Z,70.23
2023-05-12T10:27:51.415Z,70.18
2023-05-12T10:30:19.211Z,69.24
2023-05-12T10:32:46.784Z,69.47
2023-05-12T10:35:15.395Z,68.99
2023-05-12T10:37:43.738Z,69.06
2023-05-12T10:40:12.069Z,69.28
2023-05-12T10:42:41.511Z,69.48
2023-05-12T10:45:20.885Z,69.84
2023-05-12T10:47:48.698Z,70.14
2023-05-12T10:50:27.872Z,70.44
2023-05-12T10:52:55.919Z,69.95
2023-05-12T10:55:32.919Z,70.32
2023-05-12T10:58:10.588Z,70.09
2023-05-12T11:00:48.721Z,69.96
2023-05-12T11:03:19.549Z,70.06
2023-05-12T11:05:48.963Z,69.79
2023-05-12T11:08:17.769Z,70.09
2023-05-12T11:10:46.979Z,70.02
2023-05-12T11:13:14.782Z,69.73
2023-05-12T11:15:46.150Z,70.87
2023-05-12T11:18:13.826Z,70.39
2023-05-12T11:20:41.777Z,69.87
2023-05-12T11:23:09.278Z,69.30
2023-05-12T11:25:36.969Z,69.05
2023-05-12T11:28:04.568Z,68.07
2023-05-12T11:30:32.412Z,68.31
2023-05-12T11:33:04.654Z,69.71
2023-05-12T11:35:32.679Z,69.23
2023-05-12T11:38:02.797Z,68.50
2023-05-12T11:40:30.546Z,68.45
2023-05-12T11:43:00.166Z,68.43
2023-05-12T11:45:29.904Z,68.82
2023-05-12T11:48:08.826Z,70.82
2023-05-12T11:50:39.696Z,72.35
2023-05-12T11:53:12.290Z,71.48
2023-05-12T11:55:48.120Z,71.40
2023-05-12T11:58:20.779Z,70.01
2023-05-12T12:00:48.937Z,70.40
2023-05-12T12:03:17.939Z,69.36
2023-05-12T12:05:57.811Z,69.13
2023-05-12T12:08:25.434Z,69.27
2023-05-12T12:10:53.004Z,69.40
2023-05-12T12:13:21.767Z,69.54
2023-05-12T12:15:49.784Z,68.65
2023-05-12T12:18:19.381Z,68.41
2023-05-12T12:20:48.317Z,68.19
2023-05-12T12:23:16.037Z,67.86
2023-05-12T12:25:43.904Z,67.82
2023-05-12T12:28:11.414Z,68.23
2023-05-12T12:30:39.012Z,68.23
2023-05-12T12:33:06.610Z,68.82
2023-05-12T12:35:35.519Z,69.83
2023-05-12T12:38:03.069Z,68.04
2023-05-12T12:40:31.811Z,67.11
2023-05-12T12:42:59.326Z,66.55
2023-05-12T12:45:27.357Z,67.43
2023-05-12T12:47:55.563Z,67.15
2023-05-12T12:50:25.021Z,67.98
2023-05-12T12:52:54.726Z,68.83
2023-05-12T12:55:22.895Z,67.23
2023-05-12T12:57:50.805Z,66.86
2023-05-12T13:00:19.405Z,67.10
2023-05-12T13:02:47.166Z,67.06
2023-05-12T13:05:15.113Z,67.03
2023-05-12T13:07:42.844Z,66.83
2023-05-12T13:10:13.224Z,67.59
2023-05-12T13:12:41.033Z,67.85
2023-05-12T13:15:10.421Z,68.63
2023-05-12T13:17:38.072Z,68.55
2023-05-12T13:20:06.438Z,68.98
2023-05-12T13:22:33.942Z,69.29
2023-05-12T13:25:01.524Z,69.92
2023-05-12T13:27:30.558Z,70.58
2023-05-12T13:29:58.153Z,70.56
2023-05-12T13:32:25.796Z,71.10
2023-05-12T13:34:53.554Z,71.10
2023-05-12T13:37:21.450Z,71.10
2023-05-12T13:39:49.073Z,71.07
2023-05-12T13:42:17.049Z,70.74
2023-05-12T13:44:46.021Z,70.30
2023-05-12T13:47:13.654Z,70.18
2023-05-12T13:49:41.728Z,70.84
2023-05-12T13:52:09.283Z,71.24
2023-05-12T13:54:36.914Z,71.21
2023-05-12T13:57:04.813Z,70.75
2023-05-12T13:59:32.481Z,71.01
2023-05-12T14:02:01.665Z,71.09
2023-05-12T14:04:29.316Z,70.97
2023-05-12T14:06:56.904Z,71.53
2023-05-12T14:09:24.792Z,72.04
2023-05-12T14:11:53.855Z,72.17
2023-05-12T14:14:21.430Z,73.38
2023-05-12T14:16:48.975Z,72.56
2023-05-12T14:19:17.953Z,72.41
2023-05-12T14:21:45.646Z,72.48
2023-05-12T14:24:13.183Z,72.95
2023-05-12T14:26:41.025Z,73.71
2023-05-12T14:29:08.963Z,73.77
2023-05-12T14:31:36.648Z,72.87
2023-05-12T14:34:04.590Z,71.96
2023-05-12T14:36:33.471Z,72.16
2023-05-12T14:39:00.982Z,73.09
2023-05-12T14:41:28.574Z,72.13
2023-05-12T14:43:56.197Z,71.83
2023-05-12T14:46:24.933Z,71.56
2023-05-12T14:48:52.705Z,72.32
2023-05-12T14:51:20.235Z,71.59
2023-05-12T14:53:49.164Z,71.23
2023-05-12T14:56:16.702Z,72.84
2023-05-12T14:58:44.208Z,71.72
2023-05-12T15:01:12.471Z,71.59
2023-05-12T15:03:40.061Z,71.37
2023-05-12T15:06:08.592Z,71.04
2023-05-12T15:08:36.327Z,70.71
2023-05-12T15:11:05.794Z,71.21
2023-05-12T15:13:33.334Z,71.69
2023-05-12T15:16:01.418Z,71.71
2023-05-12T15:18:29.014Z,72.45
2023-05-12T15:20:56.708Z,71.26
2023-05-12T15:23:24.253Z,71.45
2023-05-12T15:25:51.857Z,72.37
2023-05-12T15:28:20.917Z,72.15
2023-05-12T15:30:55.665Z,73.02
2023-05-12T15:33:23.211Z,72.73
2023-05-12T15:35:50.719Z,73.31
2023-05-12T15:38:18.593Z,72.94
2023-05-12T15:40:46.197Z,72.48
2023-05-12T15:43:13.714Z,72.21
2023-05-12T15:45:42.609Z,71.78
2023-05-12T15:48:10.684Z,71.48
2023-05-12T15:50:38.424Z,71.71
2023-05-12T15:53:06.871Z,71.66
2023-05-12T15:55:34.655Z,71.31
2023-05-12T15:58:03.510Z,70.95
2023-05-12T16:00:31.161Z,71.05
2023-05-12T16:03:01.829Z,71.01
2023-05-12T16:05:29.479Z,71.20
2023-05-12T16:07:56.985Z,71.13
2023-05-12T16:10:26.022Z,71.57
2023-05-12T16:12:53.550Z,71.71
2023-05-12T16:15:21.511Z,72.04
2023-05-12T16:17:49.329Z,71.95
2023-05-12T16:20:18.256Z,72.30
2023-05-12T16:22:45.815Z,72.71
2023-05-12T16:25:13.361Z,73.09
2023-05-12T16:27:41.095Z,72.89
2023-05-12T16:30:09.697Z,73.25
2023-05-12T16:32:37.413Z,73.03
2023-05-12T16:35:05.451Z,73.00
2023-05-12T16:37:34.340Z,73.61
2023-05-12T16:40:02.120Z,73.50
2023-05-12T16:42:29.730Z,73.58
2023-05-12T16:44:57.324Z,73.79
2023-05-12T16:47:25.973Z,73.74
2023-05-12T16:49:54.180Z,73.80
2023-05-12T16:52:21.872Z,73.61
2023-05-12T16:54:50.789Z,74.18
2023-05-12T16:57:18.693Z,74.17
2023-05-12T16:59:48.333Z,74.86
2023-05-12T17:02:16.169Z,74.30
2023-05-12T17:04:44.435Z,73.56
2023-05-12T17:07:12.030Z,73.28
2023-05-12T17:09:39.554Z,72.49
2023-05-12T17:12:09.189Z,72.44
2023-05-12T17:14:37.317Z,72.26
2023-05-12T17:17:04.992Z,72.36
2023-05-12T17:19:33.345Z,72.48
2023-05-12T17:22:01.470Z,73.08
2023-05-12T17:24:29.070Z,72.21
2023-05-12T17:26:57.630Z,72.43
2023-05-12T17:29:26.781Z,72.53
2023-05-12T17:31:54.482Z,72.71
2023-05-12T17:34:22.130Z,72.69
2023-05-12T17:36:49.693Z,72.33
2023-05-12T17:39:17.253Z,74.39
2023-05-12T17:41:44.992Z,73.33
2023-05-12T17:44:12.556Z,72.79
2023-05-12T17:46:41.533Z,74.12
2023-05-12T17:49:10.798Z,73.12
2023-05-12T17:51:39.136Z,73.10
2023-05-12T17:54:08.172Z,73.02
2023-05-12T17:56:35.714Z,73.56
2023-05-12T17:59:03.625Z,73.40
2023-05-12T18:01:31.339Z,73.43
2023-05-12T18:04:00.244Z,73.18
2023-05-12T18:06:27.792Z,73.45
2023-05-12T18:08:56.590Z,73.42
2023-05-12T18:11:24.152Z,72.99
2023-05-12T18:13:52.097Z,73.33
2023-05-12T18:16:28.638Z,73.47
2023-05-12T18:18:56.927Z,73.37
2023-05-12T18:21:26.030Z,73.54
2023-05-12T18:23:53.563Z,73.77
2023-05-12T18:26:21.152Z,73.38
2023-05-12T18:28:48.753Z,73.29
2023-05-12T18:31:19.426Z,73.33
2023-05-12T18:33:47.540Z,73.47
2023-05-12T18:36:15.261Z,73.50
2023-05-12T18:38:44.704Z,73.37
2023-05-12T18:41:13.026Z,73.55
2023-05-12T18:43:41.815Z,73.22
2023-05-12T18:46:09.495Z,74.47
2023-05-12T18:48:37.081Z,74.11
2023-05-12T18:51:04.888Z,74.33
2023-05-12T18:53:32.446Z,73.71
2023-05-12T18:56:01.400Z,73.06
2023-05-12T18:58:28.999Z,73.06
2023-05-12T19:00:56.638Z,72.66
2023-05-12T19:03:24.189Z,72.69
2023-05-12T19:05:51.731Z,72.65
2023-05-12T19:08:19.937Z,72.68
2023-05-12T19:10:48.968Z,72.89
2023-05-12T19:13:17.971Z,73.24
2023-05-12T19:15:45.582Z,72.71
2023-05-12T19:18:13.261Z,72.87
2023-05-12T19:20:40.958Z,72.80
2023-05-12T19:23:08.688Z,72.54
2023-05-12T19:25:36.244Z,72.71
2023-05-12T19:28:04.631Z,72.46
2023-05-12T19:30:35.334Z,72.53
2023-05-12T19:33:02.978Z,72.78
2023-05-12T19:35:30.564Z,72.92
2023-05-12T19:37:58.125Z,73.03
2023-05-12T19:40:25.671Z,73.34
2023-05-12T19:42:53.522Z,73.19
2023-05-12T19:45:21.431Z,72.99
2023-05-12T19:47:54.270Z,73.49
2023-05-12T19:50:21.808Z,74.26
2023-05-12T19:52:49.719Z,75.28
2023-05-12T19:55:17.555Z,75.07
2023-05-12T19:57:45.106Z,74.98
2023-05-12T20:00:13.846Z,74.42
2023-05-12T20:02:41.663Z,74.23
2023-05-12T20:05:10.890Z,74.78
2023-05-12T20:07:38.984Z,74.91
2023-05-12T20:10:07.277Z,74.90
2023-05-12T20:12:34.835Z,75.19
2023-05-12T20:15:02.437Z,74.66
2023-05-12T20:17:29.986Z,74.88
2023-05-12T20:19:57.615Z,74.95
2023-05-12T20:22:26.717Z,74.97
2023-05-12T20:24:54.234Z,75.28
2023-05-12T20:27:21.812Z,75.37
2023-05-12T20:29:49.445Z,75.50
2023-05-12T20:32:16.962Z,75.57
2023-05-12T20:34:44.649Z,75.71
2023-05-12T20:37:12.204Z,75.72
2023-05-12T20:39:42.391Z,75.76
2023-05-12T20:42:10.458Z,75.88
2023-05-12T20:44:38.050Z,75.95
2023-05-12T20:47:06.449Z,75.98
2023-05-12T20:49:34.001Z,76.00
2023-05-12T20:52:01.570Z,76.01
2023-05-12T20:54:29.177Z,76.13
2023-05-12T20:56:58.255Z,76.44
2023-05-12T20:59:25.869Z,76.30
2023-05-12T21:01:53.401Z,76.29
2023-05-12T21:04:21.056Z,76.25
2023-05-12T21:06:48.626Z,76.19
2023-05-12T21:09:16.223Z,76.52
2023-05-12T21:11:43.748Z,76.58
2023-05-12T21:14:12.637Z,76.33
2023-05-12T21:16:40.336Z,76.32
2023-05-12T21:19:08.133Z,76.44
2023-05-12T21:21:36.023Z,76.42
2023-05-12T21:24:03.714Z,76.07
2023-05-12T21:26:31.226Z,75.97
2023-05-12T21:29:02.709Z,76.00
2023-05-12T21:31:31.796Z,76.38
2023-05-12T21:33:59.406Z,76.23
2023-05-12T21:36:27.067Z,76.21
2023-05-12T21:38:54.627Z,76.30
2023-05-12T21:41:22.398Z,76.33
2023-05-12T21:43:49.949Z,75.99
2023-05-12T21:46:17.481Z,76.13
2023-05-12T21:48:46.407Z,76.43
2023-05-12T21:51:14.101Z,75.96
2023-05-12T21:53:41.777Z,75.77
2023-05-12T21:56:09.361Z,75.70
2023-05-12T21:58:36.978Z,75.78
2023-05-12T22:01:04.623Z,75.96
2023-05-12T22:03:32.939Z,75.92
2023-05-12T22:06:02.038Z,75.46
2023-05-12T22:08:29.842Z,75.17
2023-05-12T22:10:57.453Z,75.32
2023-05-12T22:13:24.991Z,75.59
2023-05-12T22:15:53.438Z,75.17
2023-05-12T22:18:21.096Z,75.16
2023-05-12T22:20:48.627Z,75.35
2023-05-12T22:23:17.554Z,75.29
2023-05-12T22:25:45.056Z,74.94
2023-05-12T22:28:12.600Z,74.29
2023-05-12T22:30:41.571Z,74.14
2023-05-12T22:33:09.239Z,74.17
2023-05-12T22:35:36.823Z,74.46
2023-05-12T22:38:04.390Z,74.15
2023-05-12T22:40:33.680Z,74.09
2023-05-12T22:43:01.271Z,74.60
2023-05-12T22:45:29.310Z,74.35
2023-05-12T22:47:56.994Z,74.58
2023-05-12T22:50:24.850Z,74.66
2023-05-12T22:52:56.985Z,74.91
2023-05-12T22:55:26.227Z,74.96
2023-05-12T22:57:55.070Z,74.56
2023-05-12T23:00:22.787Z,74.86
2023-05-12T23:02:50.642Z,74.87
2023-05-12T23:05:18.339Z,75.25
2023-05-12T23:07:45.972Z,75.29
2023-05-12T23:10:13.496Z,75.07
2023-05-12T23:12:41.236Z,75.12
2023-05-12T23:15:10.966Z,75.55
2023-05-12T23:17:38.508Z,75.36
2023-05-12T23:20:07.723Z,75.50
2023-05-12T23:22:35.337Z,75.31
2023-05-12T23:25:02.851Z,75.53
2023-05-12T23:27:30.402Z,76.19
2023-05-12T23:29:57.966Z,76.15
2023-05-12T23:32:27.009Z,75.33
2023-05-12T23:34:54.640Z,74.93
2023-05-12T23:37:24.321Z,75.28
2023-05-12T23:39:51.890Z,75.40
2023-05-12T23:42:19.396Z,75.05
2023-05-12T23:44:47.021Z,74.62
2023-05-12T23:47:14.547Z,74.71
2023-05-12T23:49:43.439Z,74.73
2023-05-12T23:52:10.977Z,74.76
2023-05-12T23:54:38.516Z,74.72
2023-05-12T23:57:06.392Z,74.64
2023-05-12T23:59:33.919Z,75.05
